Time;durP1;ratioP1;P1;durP2;ratioP2;P2;SDS_P1;SDS_P2;PMS_P1;PMS_P2;Temp;Humidity;BMP_temperature;BMP_pressure;BME280_temperature;BME280_humidity;BME280_pressure;Samples;Min_cycle;Max_cycle;Signal;HPM_P1;HPM_P2
2023/09/27 00:00:38;;;;;;;0.03;0.03;;;13.60;99.90;;;;;;5061765;28;20542;-76
2023/09/27 00:03:04;;;;;;;0.00;0.00;;;13.50;99.90;;;;;;5061834;28;20509;-83
2023/09/27 00:05:30;;;;;;;0.10;0.10;;;13.60;99.90;;;;;;5061291;28;20044;-81
2023/09/27 00:07:57;;;;;;;0.10;0.10;;;13.60;99.90;;;;;;5061408;28;20024;-79
2023/09/27 00:10:23;;;;;;;0.10;0.10;;;13.60;99.90;;;;;;5062387;28;20033;-79
2023/09/27 00:12:49;;;;;;;0.15;0.15;;;13.50;99.90;;;;;;5045402;28;20021;-79
2023/09/27 00:15:15;;;;;;;0.10;0.10;;;13.60;99.90;;;;;;5062990;28;20031;-79
2023/09/27 00:17:43;;;;;;;0.10;0.10;;;13.60;99.90;;;;;;5063210;28;20034;-77
2023/09/27 00:20:15;;;;;;;0.10;0.10;;;13.60;99.90;;;;;;5063037;28;20195;-77
2023/09/27 00:22:42;;;;;;;0.10;0.10;;;13.60;99.90;;;;;;5060856;28;20498;-79
2023/09/27 00:25:09;;;;;;;0.10;0.10;;;13.60;99.90;;;;;;5062097;28;20374;-78
2023/09/27 00:27:37;;;;;;;0.10;0.10;;;13.40;99.90;;;;;;5043416;28;20117;-78
2023/09/27 00:30:06;;;;;;;1.13;1.08;;;13.30;99.90;;;;;;5060423;28;20047;-76
2023/09/27 00:32:32;;;;;;;0.10;0.10;;;13.30;99.90;;;;;;5060279;28;20025;-78
2023/09/27 00:34:58;;;;;;;0.00;0.00;;;13.30;99.90;;;;;;5060923;28;20031;-78
2023/09/27 00:37:24;;;;;;;0.10;0.10;;;13.30;99.90;;;;;;5042134;28;20036;-77
2023/09/27 00:39:51;;;;;;;0.00;0.00;;;13.30;99.90;;;;;;5060963;28;20032;-77
2023/09/27 00:42:17;;;;;;;0.00;0.00;;;13.20;99.90;;;;;;5060166;28;20622;-79
2023/09/27 00:44:44;;;;;;;0.00;0.00;;;13.10;99.90;;;;;;5060750;28;20662;-76
2023/09/27 00:47:10;;;;;;;0.30;0.30;;;13.10;99.90;;;;;;5061390;28;20027;-77
2023/09/27 00:49:37;;;;;;;0.10;0.10;;;13.10;99.90;;;;;;5061652;28;20028;-75
2023/09/27 00:52:06;;;;;;;0.10;0.10;;;13.10;99.90;;;;;;5060324;28;20032;-77
2023/09/27 00:54:34;;;;;;;0.10;0.10;;;12.00;99.90;;;;;;5062410;28;20024;-76
2023/09/27 00:57:02;;;;;;;0.68;0.68;;;10.30;99.90;;;;;;5061349;28;20514;-76
2023/09/27 00:59:29;;;;;;;4.40;4.10;;;13.20;99.90;;;;;;5044406;28;20020;-76
2023/09/27 01:01:55;;;;;;;0.10;0.10;;;13.00;99.90;;;;;;5063669;28;20024;-74
2023/09/27 01:04:23;;;;;;;1.35;1.27;;;13.10;99.90;;;;;;5064705;28;20240;-75
2023/09/27 01:06:51;;;;;;;0.50;0.50;;;13.10;99.90;;;;;;5064653;28;20267;-77
2023/09/27 01:09:17;;;;;;;0.10;0.10;;;13.00;99.90;;;;;;5060771;28;20111;-75
2023/09/27 01:11:46;;;;;;;0.00;0.00;;;11.60;99.90;;;;;;5062668;28;20120;-75
2023/09/27 01:14:13;;;;;;;1.85;1.80;;;13.10;99.90;;;;;;5043979;28;20643;-76
2023/09/27 01:16:41;;;;;;;3.50;3.30;;;13.10;99.90;;;;;;5062350;28;20107;-78
2023/09/27 01:19:08;;;;;;;1.23;1.17;;;13.10;99.90;;;;;;5045958;28;20054;-75
2023/09/27 01:21:38;;;;;;;0.10;0.10;;;13.20;99.90;;;;;;5046460;28;20364;-76
2023/09/27 01:24:06;;;;;;;4.80;4.50;;;13.20;99.90;;;;;;5064479;28;20023;-76
2023/09/27 01:26:36;;;;;;;2.33;2.22;;;13.10;99.90;;;;;;5062765;28;20024;-75
2023/09/27 01:29:02;;;;;;;0.10;0.10;;;13.10;99.90;;;;;;5043730;28;20037;-75
2023/09/27 01:31:28;;;;;;;0.57;0.57;;;13.00;99.90;;;;;;5063022;28;20120;-75
2023/09/27 01:33:55;;;;;;;0.10;0.10;;;13.10;99.90;;;;;;5064606;28;20044;-76
2023/09/27 01:36:22;;;;;;;1.38;1.33;;;13.00;99.90;;;;;;5061140;28;20112;-74
2023/09/27 01:38:48;;;;;;;0.73;0.70;;;13.10;99.90;;;;;;5062301;28;20021;-75
2023/09/27 01:41:20;;;;;;;0.45;0.43;;;13.00;99.90;;;;;;5062081;28;20131;-75
2023/09/27 01:43:46;;;;;;;0.93;0.93;;;13.00;99.90;;;;;;5061983;28;20051;-75
2023/09/27 01:46:12;;;;;;;3.30;3.15;;;13.00;99.90;;;;;;5061301;28;20021;-75
2023/09/27 01:48:39;;;;;;;2.58;2.47;;;13.00;99.90;;;;;;5061515;28;20341;-77
2023/09/27 01:51:05;;;;;;;0.10;0.10;;;12.90;99.90;;;;;;5043449;28;20101;-75
2023/09/27 01:53:31;;;;;;;0.10;0.10;;;12.70;99.90;;;;;;5061826;28;20016;-75
2023/09/27 01:55:58;;;;;;;0.10;0.10;;;12.60;99.90;;;;;;5066112;28;20035;-75
2023/09/27 01:58:24;;;;;;;0.00;0.00;;;12.60;99.90;;;;;;5066682;28;20032;-77
2023/09/27 02:00:53;;;;;;;0.10;0.10;;;12.60;99.90;;;;;;5066241;28;20051;-75
2023/09/27 02:03:19;;;;;;;0.10;0.10;;;12.50;99.90;;;;;;5067198;28;20025;-78
2023/09/27 02:05:46;;;;;;;0.10;0.10;;;12.50;99.90;;;;;;5066915;28;20260;-75
2023/09/27 02:08:12;;;;;;;0.00;0.00;;;11.80;99.90;;;;;;5065817;28;20356;-75
2023/09/27 02:10:42;;;;;;;0.10;0.10;;;12.30;99.90;;;;;;5065805;28;20667;-74
2023/09/27 02:13:09;;;;;;;0.10;0.10;;;12.40;99.90;;;;;;5064796;28;20413;-74
2023/09/27 02:15:36;;;;;;;0.10;0.10;;;12.50;99.90;;;;;;5061996;28;20024;-77
2023/09/27 02:18:02;;;;;;;0.10;0.10;;;12.40;99.90;;;;;;5061618;28;20154;-75
2023/09/27 02:20:28;;;;;;;0.05;0.05;;;12.50;99.90;;;;;;5065468;28;20020;-75
2023/09/27 02:22:54;;;;;;;0.00;0.00;;;12.50;99.90;;;;;;5029558;28;20103;-75
2023/09/27 02:25:20;;;;;;;0.10;0.10;;;12.50;99.90;;;;;;5046032;28;20187;-75
2023/09/27 02:27:46;;;;;;;0.10;0.10;;;12.60;99.90;;;;;;5076345;28;20083;-75
2023/09/27 02:30:12;;;;;;;0.00;0.00;;;12.60;99.90;;;;;;5047095;28;20336;-75
2023/09/27 02:32:40;;;;;;;0.38;0.38;;;12.60;99.90;;;;;;5048144;28;20115;-75
2023/09/27 02:35:09;;;;;;;0.10;0.10;;;12.50;99.90;;;;;;5062404;28;20044;-75
2023/09/27 02:37:40;;;;;;;0.00;0.00;;;12.80;99.90;;;;;;5046931;28;20477;-76
2023/09/27 02:40:11;;;;;;;0.10;0.10;;;12.40;99.90;;;;;;5048881;28;20426;-76
2023/09/27 02:42:47;;;;;;;0.40;0.40;;;12.50;99.90;;;;;;5052991;28;20042;-76
2023/09/27 02:45:14;;;;;;;0.00;0.00;;;12.50;99.90;;;;;;5061628;28;20033;-75
2023/09/27 02:47:43;;;;;;;0.10;0.10;;;12.50;99.90;;;;;;5062515;28;20213;-75
2023/09/27 02:50:18;;;;;;;0.10;0.10;;;12.50;99.90;;;;;;5062014;28;20595;-77
2023/09/27 02:52:44;;;;;;;0.10;0.10;;;13.00;99.90;;;;;;5046377;28;20031;-75
2023/09/27 02:55:15;;;;;;;0.57;0.57;;;12.50;99.90;;;;;;5063872;28;20021;-75
2023/09/27 02:57:42;;;;;;;0.10;0.10;;;12.50;99.90;;;;;;5063965;28;20327;-77
2023/09/27 03:00:08;;;;;;;0.10;0.10;;;12.50;99.90;;;;;;5061000;28;20205;-76
2023/09/27 03:02:34;;;;;;;0.00;0.00;;;12.50;99.90;;;;;;5063909;28;20225;-77
2023/09/27 03:05:05;;;;;;;0.10;0.10;;;12.50;99.90;;;;;;5064161;28;20036;-74
2023/09/27 03:07:33;;;;;;;0.20;0.20;;;10.70;99.90;;;;;;5063190;28;20035;-75
2023/09/27 03:09:59;;;;;;;0.00;0.00;;;12.40;99.90;;;;;;5043583;28;20033;-75
2023/09/27 03:12:26;;;;;;;0.57;0.57;;;12.40;99.90;;;;;;5060836;28;20021;-74
2023/09/27 03:14:58;;;;;;;0.00;0.00;;;11.70;99.90;;;;;;5064973;28;20024;-75
2023/09/27 03:17:23;;;;;;;0.50;0.50;;;9.50;99.90;;;;;;5082513;28;20025;-75
2023/09/27 03:19:49;;;;;;;0.00;0.00;;;12.30;99.90;;;;;;5047493;28;20082;-75
2023/09/27 03:22:15;;;;;;;0.00;0.00;;;;;;;;;;5080704;28;20036;-75
2023/09/27 03:24:41;;;;;;;0.00;0.00;;;12.10;99.90;;;;;;5065788;28;20173;-78
2023/09/27 03:27:08;;;;;;;12.07;11.27;;;12.20;99.90;;;;;;5067212;28;20020;-75
2023/09/27 03:29:36;;;;;;;0.10;0.10;;;;;;;;;;5065552;28;20029;-75
2023/09/27 03:32:03;;;;;;;1.17;1.17;;;12.10;99.90;;;;;;5064351;28;20047;-75
2023/09/27 03:34:31;;;;;;;0.10;0.10;;;12.30;99.90;;;;;;5067516;28;20028;-75
2023/09/27 03:37:03;;;;;;;0.00;0.00;;;12.10;99.90;;;;;;5068142;28;20024;-75
2023/09/27 03:39:29;;;;;;;0.55;0.55;;;12.00;99.90;;;;;;5066902;28;20522;-75
2023/09/27 03:41:59;;;;;;;0.10;0.10;;;11.20;99.90;;;;;;5067246;28;20313;-75
2023/09/27 03:44:26;;;;;;;0.10;0.10;;;12.00;99.90;;;;;;5081645;28;20055;-74
2023/09/27 03:46:51;;;;;;;0.03;0.03;;;11.90;99.90;;;;;;5047515;28;20032;-76
2023/09/27 03:49:17;;;;;;;0.00;0.00;;;12.00;99.90;;;;;;5065403;28;20055;-75
2023/09/27 03:51:44;;;;;;;1.08;1.08;;;12.10;99.90;;;;;;5065421;28;20063;-75
2023/09/27 03:54:10;;;;;;;3.60;3.40;;;12.10;99.90;;;;;;5065207;28;20328;-74
2023/09/27 03:56:36;;;;;;;0.00;0.00;;;12.10;99.90;;;;;;5065539;28;20493;-75
2023/09/27 03:59:04;;;;;;;0.22;0.22;;;12.10;99.90;;;;;;5064743;28;20501;-76
2023/09/27 04:01:36;;;;;;;2.00;1.42;;;12.80;99.90;;;;;;5080143;28;20839;-75
2023/09/27 04:04:04;;;;;;;0.90;0.90;;;12.00;99.90;;;;;;5066544;28;20266;-75
2023/09/27 04:06:31;;;;;;;1.88;1.30;;;12.00;99.90;;;;;;5080736;28;20394;-76
2023/09/27 04:08:56;;;;;;;0.90;0.88;;;11.70;99.90;;;;;;5064280;28;20082;-74
2023/09/27 04:11:22;;;;;;;0.10;0.10;;;12.60;99.90;;;;;;5082123;28;20090;-75
2023/09/27 04:13:48;;;;;;;0.10;0.10;;;11.90;99.90;;;;;;5049945;28;20024;-75
2023/09/27 04:16:16;;;;;;;0.10;0.10;;;11.40;99.90;;;;;;5067369;28;20037;-75
2023/09/27 04:18:50;;;;;;;0.68;0.68;;;11.40;99.90;;;;;;5050651;28;20048;-75
2023/09/27 04:21:16;;;;;;;1.65;1.55;;;11.90;99.90;;;;;;5068686;28;20020;-74
2023/09/27 04:23:42;;;;;;;0.38;0.38;;;9.90;99.90;;;;;;5072071;28;20044;-76
2023/09/27 04:26:09;;;;;;;0.20;0.20;;;12.30;99.90;;;;;;5073335;28;20063;-76
2023/09/27 04:28:34;;;;;;;0.00;0.00;;;11.40;99.90;;;;;;5086918;28;20054;-76
2023/09/27 04:31:03;;;;;;;0.52;0.52;;;11.60;99.90;;;;;;5074430;28;20068;-75
2023/09/27 04:33:29;;;;;;;0.20;0.20;;;11.60;99.90;;;;;;5073985;28;20494;-75
2023/09/27 04:35:55;;;;;;;0.17;0.17;;;11.60;99.90;;;;;;5073043;28;20028;-76
2023/09/27 04:38:21;;;;;;;0.43;0.43;;;12.60;99.90;;;;;;5053640;28;20043;-75
2023/09/27 04:40:47;;;;;;;0.50;0.50;;;11.50;99.90;;;;;;5055627;28;20024;-76
2023/09/27 04:43:14;;;;;;;0.35;0.35;;;11.60;99.90;;;;;;5069141;28;20037;-75
2023/09/27 04:45:41;;;;;;;0.30;0.30;;;11.60;99.90;;;;;;5069084;28;20165;-76
2023/09/27 04:48:08;;;;;;;0.63;0.63;;;11.60;99.90;;;;;;5055209;28;20056;-76
2023/09/27 04:50:34;;;;;;;0.10;0.10;;;11.60;99.90;;;;;;5072676;28;20035;-76
2023/09/27 04:53:02;;;;;;;0.10;0.10;;;10.60;99.90;;;;;;5068189;28;20024;-76
2023/09/27 04:55:28;;;;;;;0.10;0.10;;;11.70;99.90;;;;;;5066968;28;20518;-75
2023/09/27 04:57:54;;;;;;;0.10;0.10;;;11.70;99.90;;;;;;5045999;28;20213;-76
2023/09/27 05:00:22;;;;;;;0.10;0.10;;;;;;;;;;5064125;28;20042;-76
2023/09/27 05:02:51;;;;;;;0.10;0.10;;;11.70;99.90;;;;;;5043723;28;20039;-75
2023/09/27 05:05:17;;;;;;;0.10;0.10;;;11.70;99.90;;;;;;5046867;28;20024;-76
2023/09/27 05:07:43;;;;;;;0.10;0.10;;;11.60;99.90;;;;;;5064181;28;20021;-75
2023/09/27 05:10:10;;;;;;;0.10;0.10;;;11.60;99.90;;;;;;5063320;28;20028;-76
2023/09/27 05:12:38;;;;;;;0.03;0.03;;;11.60;99.90;;;;;;5063369;28;20036;-76
2023/09/27 05:15:05;;;;;;;0.00;0.00;;;11.50;99.90;;;;;;5048666;28;20224;-77
2023/09/27 05:17:33;;;;;;;0.00;0.00;;;11.70;99.90;;;;;;5063973;28;20722;-76
2023/09/27 05:19:59;;;;;;;0.10;0.10;;;12.20;99.90;;;;;;5053180;28;20025;-76
2023/09/27 05:22:25;;;;;;;0.10;0.10;;;11.70;99.90;;;;;;5072549;28;20040;-77
2023/09/27 05:24:58;;;;;;;0.00;0.00;;;9.60;99.90;;;;;;5073764;28;20028;-75
2023/09/27 05:27:24;;;;;;;0.00;0.00;;;11.70;99.90;;;;;;5072807;28;20032;-75
2023/09/27 05:29:49;;;;;;;0.00;0.00;;;11.60;99.90;;;;;;5074255;28;20405;-76
2023/09/27 05:32:15;;;;;;;0.10;0.10;;;11.60;99.90;;;;;;5073760;28;20033;-76
2023/09/27 05:34:43;;;;;;;0.03;0.03;;;11.60;99.90;;;;;;5072513;28;20043;-76
2023/09/27 05:37:10;;;;;;;0.00;0.00;;;11.60;99.90;;;;;;5071782;28;20025;-76
2023/09/27 05:39:36;;;;;;;0.10;0.10;;;10.10;99.90;;;;;;5067932;28;20013;-75
2023/09/27 05:42:05;;;;;;;0.10;0.10;;;11.80;99.90;;;;;;5070544;28;20320;-76
2023/09/27 05:44:34;;;;;;;5.38;3.50;;;12.00;99.90;;;;;;5069441;28;20111;-75
2023/09/27 05:46:59;;;;;;;7.05;6.43;;;12.00;99.90;;;;;;5067425;28;20448;-75
2023/09/27 05:49:26;;;;;;;7.22;6.85;;;12.00;99.90;;;;;;5066264;28;20025;-78
2023/09/27 05:51:52;;;;;;;3.92;3.70;;;12.10;99.90;;;;;;5062305;28;20036;-77
2023/09/27 05:54:23;;;;;;;0.63;0.63;;;12.20;99.90;;;;;;5067572;28;20383;-76
2023/09/27 05:56:51;;;;;;;0.10;0.10;;;12.30;99.90;;;;;;5062856;28;20020;-75
2023/09/27 05:59:24;;;;;;;0.73;0.73;;;12.30;99.90;;;;;;5079354;28;20078;-75
2023/09/27 06:01:51;;;;;;;0.85;0.85;;;12.40;99.90;;;;;;5066774;28;20024;-77
2023/09/27 06:04:19;;;;;;;2.83;2.72;;;12.50;99.90;;;;;;5045250;28;20474;-77
2023/09/27 06:06:45;;;;;;;0.30;0.30;;;12.60;99.90;;;;;;5061543;28;20210;-77
2023/09/27 06:09:11;;;;;;;2.85;2.70;;;12.60;99.90;;;;;;5059998;28;20020;-75
2023/09/27 06:11:37;;;;;;;0.63;0.63;;;12.70;99.90;;;;;;5060216;28;20028;-75
2023/09/27 06:14:10;;;;;;;0.25;0.25;;;12.80;99.90;;;;;;5059314;28;20092;-81
2023/09/27 06:16:37;;;;;;;0.10;0.10;;;12.90;99.90;;;;;;5025259;28;20347;-75
2023/09/27 06:19:04;;;;;;;0.10;0.10;;;12.90;99.90;;;;;;5059068;28;20107;-78
2023/09/27 06:21:30;;;;;;;0.10;0.10;;;13.00;99.90;;;;;;5040425;28;20539;-76
2023/09/27 06:23:56;;;;;;;1.20;1.17;;;12.70;99.90;;;;;;5058307;28;20016;-76
2023/09/27 06:26:21;;;;;;;0.65;0.65;;;13.10;99.90;;;;;;5058404;28;20501;-75
2023/09/27 06:28:48;;;;;;;0.10;0.10;;;13.20;99.90;;;;;;5058016;28;20104;-76
2023/09/27 06:31:14;;;;;;;0.00;0.00;;;13.30;99.90;;;;;;5058358;28;20071;-78
2023/09/27 06:33:40;;;;;;;3.42;3.20;;;14.90;99.90;;;;;;5058974;28;20315;-78
2023/09/27 06:36:10;;;;;;;0.10;0.10;;;13.40;99.90;;;;;;5039906;28;20077;-77
2023/09/27 06:38:36;;;;;;;0.35;0.35;;;12.40;99.90;;;;;;5039373;28;20537;-80
2023/09/27 06:41:02;;;;;;;0.10;0.10;;;13.60;99.90;;;;;;5058140;28;20032;-78
2023/09/27 06:43:31;;;;;;;0.10;0.10;;;13.70;99.90;;;;;;5039813;28;20032;-85
2023/09/27 06:46:01;;;;;;;0.90;0.90;;;13.80;99.90;;;;;;5058434;28;20534;-78
2023/09/27 06:48:27;;;;;;;2.17;2.08;;;13.90;99.90;;;;;;5057982;28;20027;-75
2023/09/27 06:50:53;;;;;;;0.40;0.40;;;13.90;99.90;;;;;;5039956;28;20029;-76
2023/09/27 06:53:20;;;;;;;0.85;0.85;;;14.10;99.90;;;;;;5058120;28;20024;-76
2023/09/27 06:55:47;;;;;;;2.03;1.85;;;14.20;99.90;;;;;;5039401;28;20029;-74
2023/09/27 06:58:14;;;;;;;0.10;0.10;;;14.30;99.90;;;;;;5057845;28;20547;-75
2023/09/27 07:00:41;;;;;;;0.10;0.10;;;12.50;99.90;;;;;;5072940;28;20111;-75
2023/09/27 07:03:07;;;;;;;0.00;0.00;;;14.40;99.90;;;;;;5039483;28;20333;-76
2023/09/27 07:05:35;;;;;;;5.07;4.72;;;14.60;99.90;;;;;;5039394;28;20069;-79
2023/09/27 07:08:04;;;;;;;0.10;0.10;;;14.60;99.90;;;;;;5057594;28;20376;-77
2023/09/27 07:10:30;;;;;;;0.10;0.10;;;14.70;99.90;;;;;;5058098;28;20033;-81
2023/09/27 07:12:56;;;;;;;0.40;0.40;;;14.80;99.90;;;;;;5057906;28;20719;-75
2023/09/27 07:15:22;;;;;;;0.10;0.10;;;14.80;99.90;;;;;;5058503;28;20028;-77
2023/09/27 07:17:47;;;;;;;0.10;0.10;;;15.10;99.90;;;;;;5058291;28;20421;-76
2023/09/27 07:20:24;;;;;;;0.43;0.43;;;15.10;99.90;;;;;;5057668;28;20429;-77
2023/09/27 07:22:51;;;;;;;0.10;0.10;;;16.20;99.90;;;;;;5057557;28;20253;-76
2023/09/27 07:25:18;;;;;;;0.10;0.10;;;15.50;99.90;;;;;;5039069;28;20286;-77
2023/09/27 07:27:46;;;;;;;0.32;0.32;;;15.70;99.90;;;;;;5057427;28;20113;-76
2023/09/27 07:30:12;;;;;;;0.10;0.10;;;15.80;99.90;;;;;;5057452;28;20237;-75
2023/09/27 07:32:41;;;;;;;0.00;0.00;;;16.00;99.90;;;;;;5057217;28;20107;-76
2023/09/27 07:35:09;;;;;;;0.20;0.20;;;16.00;99.90;;;;;;5039308;28;20508;-75
2023/09/27 07:37:36;;;;;;;0.75;0.75;;;16.10;99.90;;;;;;5038951;28;20328;-75
2023/09/27 07:40:04;;;;;;;0.20;0.20;;;16.30;99.90;;;;;;5057028;28;20017;-75
2023/09/27 07:42:30;;;;;;;0.08;0.08;;;16.50;99.90;;;;;;5038844;28;20409;-79
2023/09/27 07:44:56;;;;;;;1.05;1.05;;;16.70;99.90;;;;;;5057506;28;20474;-75
2023/09/27 07:47:23;;;;;;;0.10;0.10;;;16.90;99.90;;;;;;5057700;28;20036;-76
2023/09/27 07:49:49;;;;;;;0.05;0.05;;;17.10;99.90;;;;;;5057515;28;20021;-75
2023/09/27 07:52:15;;;;;;;0.10;0.10;;;17.00;99.90;;;;;;5072522;28;20090;-80
2023/09/27 07:54:58;;;;;;;0.08;0.08;;;17.50;99.90;;;;;;5039146;28;20033;-79
2023/09/27 07:57:24;;;;;;;1.58;1.48;;;17.70;99.90;;;;;;5058100;28;20043;-80
2023/09/27 07:59:51;;;;;;;0.25;0.25;;;17.80;99.90;;;;;;5039253;28;20078;-76
2023/09/27 08:02:16;;;;;;;1.85;1.23;;;18.10;99.90;;;;;;5061607;28;20078;-81
2023/09/27 08:04:42;;;;;;;0.00;0.00;;;18.30;99.90;;;;;;5060955;28;20021;-77
2023/09/27 08:07:10;;;;;;;0.38;0.30;;;18.60;99.90;;;;;;5061962;28;20035;-82
2023/09/27 08:09:38;;;;;;;0.00;0.00;;;18.80;99.90;;;;;;5061253;28;20035;-76
2023/09/27 08:12:05;;;;;;;0.00;0.00;;;19.10;99.90;;;;;;5061159;28;20226;-76
2023/09/27 08:14:32;;;;;;;0.10;0.10;;;19.30;99.90;;;;;;5043030;28;20294;-78
2023/09/27 08:16:58;;;;;;;0.00;0.00;;;19.50;99.90;;;;;;5042350;28;20333;-76
2023/09/27 08:19:24;;;;;;;0.00;0.00;;;19.70;99.90;;;;;;5060464;28;20575;-76
2023/09/27 08:21:50;;;;;;;0.00;0.00;;;20.00;99.90;;;;;;5075469;28;20389;-76
2023/09/27 08:24:17;;;;;;;0.32;0.32;;;20.10;99.90;;;;;;5042972;28;20525;-77
2023/09/27 08:26:43;;;;;;;0.00;0.00;;;20.30;99.90;;;;;;5042434;28;20016;-75
2023/09/27 08:29:09;;;;;;;0.70;0.35;;;20.40;99.90;;;;;;5059757;28;20043;-82
2023/09/27 08:31:37;;;;;;;0.08;0.08;;;20.50;99.90;;;;;;5060324;28;20028;-79
2023/09/27 08:34:04;;;;;;;0.08;0.08;;;20.50;99.90;;;;;;5060314;28;20017;-79
2023/09/27 08:36:30;;;;;;;0.45;0.45;;;20.60;99.90;;;;;;5042315;28;20301;-80
2023/09/27 08:38:56;;;;;;;0.85;0.77;;;20.80;99.90;;;;;;5059972;28;20313;-77
2023/09/27 08:41:24;;;;;;;0.10;0.10;;;20.90;99.90;;;;;;5026100;28;20100;-77
2023/09/27 08:43:51;;;;;;;0.25;0.25;;;21.10;99.90;;;;;;5042668;28;20024;-76
2023/09/27 08:46:22;;;;;;;0.10;0.10;;;21.20;99.90;;;;;;5060556;28;20024;-76
2023/09/27 08:48:49;;;;;;;0.00;0.00;;;21.30;99.90;;;;;;5060617;28;20526;-84
2023/09/27 08:51:15;;;;;;;0.20;0.20;;;21.30;99.90;;;;;;5043273;28;20024;-76
2023/09/27 08:53:42;;;;;;;0.00;0.00;;;20.50;99.90;;;;;;5061234;28;20020;-76
2023/09/27 08:56:16;;;;;;;0.10;0.10;;;21.50;99.90;;;;;;5062084;28;20032;-79
2023/09/27 08:58:44;;;;;;;0.00;0.00;;;21.30;99.90;;;;;;5046058;28;20021;-81
2023/09/27 09:01:11;;;;;;;0.00;0.00;;;21.60;99.90;;;;;;5045047;28;20213;-76
2023/09/27 09:03:37;;;;;;;0.00;0.00;;;21.80;99.90;;;;;;5028515;28;20043;-78
2023/09/27 09:06:11;;;;;;;0.00;0.00;;;21.80;99.70;;;;;;5043913;28;20022;-75
2023/09/27 09:08:43;;;;;;;0.13;0.13;;;22.00;99.30;;;;;;5075763;28;20025;-83
2023/09/27 09:11:10;;;;;;;0.00;0.00;;;21.90;99.40;;;;;;5042583;28;20170;-76
2023/09/27 09:14:10;;;;;;;0.00;0.00;;;22.00;97.90;;;;;;5041672;28;20023;-74
2023/09/27 09:16:39;;;;;;;0.20;0.20;;;22.20;99.50;;;;;;4977326;28;20102;-79
2023/09/27 09:19:25;;;;;;;0.10;0.10;;;23.30;98.20;;;;;;4961876;28;20489;-79
2023/09/27 09:22:08;;;;;;;0.00;0.00;;;22.50;98.30;;;;;;4977858;28;20026;-76
2023/09/27 09:24:43;;;;;;;;;;;22.60;96.80;;;;;;4961856;28;20030;-76
2023/09/27 09:27:15;;;;;;;0.00;0.00;;;22.80;96.40;;;;;;4977036;28;20186;-78
2023/09/27 09:29:53;;;;;;;0.98;0.98;;;22.80;96.30;;;;;;4961847;28;20050;-79
2023/09/27 09:32:26;;;;;;;0.00;0.00;;;23.00;96.40;;;;;;4960890;28;20255;-76
2023/09/27 09:34:52;;;;;;;;;;;24.60;96.40;;;;;;4977791;28;20475;-76
2023/09/27 09:37:20;;;;;;;0.00;0.00;;;23.00;95.70;;;;;;4977096;28;20268;-76
2023/09/27 09:39:49;;;;;;;0.00;0.00;;;23.20;95.30;;;;;;4976703;28;20034;-77
2023/09/27 09:42:32;;;;;;;0.10;0.10;;;22.60;95.70;;;;;;4977210;28;20027;-81
2023/09/27 09:45:06;;;;;;;0.00;0.00;;;23.30;95.80;;;;;;4977400;28;20058;-80
2023/09/27 09:47:44;;;;;;;0.63;0.63;;;23.60;95.20;;;;;;4978104;28;20077;-78
2023/09/27 09:50:18;;;;;;;0.00;0.00;;;23.70;93.60;;;;;;4977230;28;20098;-78
2023/09/27 09:52:57;;;;;;;0.00;0.00;;;23.70;94.30;;;;;;5037182;28;20225;-78
2023/09/27 09:55:25;;;;;;;0.20;0.20;;;23.90;94.40;;;;;;5059603;28;20355;-78
2023/09/27 09:57:58;;;;;;;0.28;0.28;;;23.90;94.10;;;;;;5059604;28;20195;-79
2023/09/27 10:00:25;;;;;;;0.00;0.00;;;24.00;94.00;;;;;;5041799;28;20025;-77
2023/09/27 10:03:03;;;;;;;0.00;0.00;;;24.30;93.60;;;;;;5058762;28;20048;-79
2023/09/27 10:05:36;;;;;;;1.15;1.08;;;24.50;93.20;;;;;;5058671;28;20027;-83
2023/09/27 10:08:02;;;;;;;0.20;0.17;;;24.50;91.10;;;;;;5058516;28;20465;-77
2023/09/27 10:10:28;;;;;;;0.00;0.00;;;24.60;90.60;;;;;;5059464;28;20303;-78
2023/09/27 10:12:56;;;;;;;0.57;0.57;;;24.60;90.90;;;;;;5059638;28;20341;-78
2023/09/27 10:15:22;;;;;;;0.20;0.15;;;24.80;90.60;;;;;;5060582;28;20555;-76
2023/09/27 10:17:49;;;;;;;0.00;0.00;;;24.70;90.10;;;;;;5060132;28;20022;-76
2023/09/27 10:20:22;;;;;;;0.52;0.38;;;24.70;89.90;;;;;;5042081;28;20021;-79
2023/09/27 10:22:49;;;;;;;0.10;0.10;;;24.70;89.40;;;;;;5044078;28;20020;-76
2023/09/27 10:25:41;;;;;;;0.00;0.00;;;24.90;90.80;;;;;;5042798;28;20036;-77
2023/09/27 10:28:08;;;;;;;0.00;0.00;;;25.00;88.30;;;;;;5056233;28;20490;-85
2023/09/27 10:30:40;;;;;;;0.00;0.00;;;25.00;87.50;;;;;;5059114;28;20087;-76
2023/09/27 10:33:15;;;;;;;0.22;0.22;;;25.20;86.90;;;;;;5042173;28;20013;-76
2023/09/27 10:36:07;;;;;;;0.00;0.00;;;25.40;86.70;;;;;;5059393;28;20025;-75
2023/09/27 10:38:42;;;;;;;0.05;0.05;;;25.50;85.90;;;;;;5039452;28;20717;-81
2023/09/27 10:41:31;;;;;;;0.10;0.10;;;25.60;86.60;;;;;;5058321;28;20045;-76
2023/09/27 10:43:58;;;;;;;0.00;0.00;;;28.60;89.70;;;;;;5045771;28;20609;-78
2023/09/27 10:46:24;;;;;;;0.20;0.15;;;25.90;86.60;;;;;;5058359;28;20539;-76
2023/09/27 10:48:59;;;;;;;0.00;0.00;;;26.00;87.30;;;;;;5057929;28;20048;-76
2023/09/27 10:51:26;;;;;;;0.00;0.00;;;26.30;85.40;;;;;;5057989;28;20032;-77
2023/09/27 10:53:55;;;;;;;0.00;0.00;;;26.50;83.20;;;;;;5040439;28;20040;-79
2023/09/27 10:56:21;;;;;;;0.03;0.03;;;26.50;82.00;;;;;;5058302;28;20041;-80
2023/09/27 10:58:51;;;;;;;0.10;0.10;;;26.50;81.10;;;;;;5058096;28;20378;-77
2023/09/27 11:01:21;;;;;;;0.00;0.00;;;26.60;79.60;;;;;;5058196;28;20381;-76
2023/09/27 11:03:47;;;;;;;0.00;0.00;;;26.40;78.70;;;;;;5040858;28;20089;-77
2023/09/27 11:06:14;;;;;;;0.03;0.03;;;26.60;81.20;;;;;;5058636;28;20057;-76
2023/09/27 11:08:41;;;;;;;1.73;1.63;;;26.80;79.30;;;;;;5059872;28;20521;-76
2023/09/27 11:11:07;;;;;;;0.25;0.25;;;26.90;75.10;;;;;;5040486;28;20032;-78
2023/09/27 11:13:34;;;;;;;0.10;0.10;;;27.30;77.20;;;;;;5059205;28;20271;-78
2023/09/27 11:16:18;;;;;;;0.38;0.38;;;27.30;74.90;;;;;;5058169;28;20024;-75
2023/09/27 11:18:56;;;;;;;0.00;0.00;;;27.50;74.00;;;;;;5057866;28;20035;-79
2023/09/27 11:21:26;;;;;;;0.25;0.20;;;27.60;69.70;;;;;;5059931;28;20016;-77
2023/09/27 11:24:04;;;;;;;0.60;0.20;;;27.80;68.10;;;;;;5041227;28;20016;-75
2023/09/27 11:26:32;;;;;;;5.10;4.75;;;27.80;66.20;;;;;;5040079;28;20024;-78
2023/09/27 11:29:03;;;;;;;0.00;0.00;;;27.70;66.80;;;;;;5057634;28;20446;-75
2023/09/27 11:31:34;;;;;;;0.95;0.90;;;27.80;66.80;;;;;;5040035;28;20032;-77
2023/09/27 11:34:19;;;;;;;0.65;0.65;;;27.60;65.50;;;;;;5058131;28;20028;-76
2023/09/27 11:36:47;;;;;;;0.00;0.00;;;27.50;66.10;;;;;;5043351;28;20028;-76
2023/09/27 11:39:16;;;;;;;5.97;5.55;;;27.70;67.10;;;;;;5061399;28;20309;-76
2023/09/27 11:41:46;;;;;;;0.70;0.70;;;27.80;66.50;;;;;;5043757;28;20078;-75
2023/09/27 11:44:20;;;;;;;0.55;0.45;;;28.20;65.70;;;;;;5028204;28;20036;-76
2023/09/27 11:46:47;;;;;;;0.00;0.00;;;26.90;64.40;;;;;;5044551;28;20031;-76
2023/09/27 11:49:13;;;;;;;0.10;0.10;;;28.00;64.70;;;;;;5044712;28;20028;-75
2023/09/27 11:51:39;;;;;;;0.70;0.55;;;27.90;63.90;;;;;;5062084;28;20040;-77
2023/09/27 11:54:05;;;;;;;0.00;0.00;;;28.00;63.90;;;;;;5062789;28;20028;-77
2023/09/27 11:56:36;;;;;;;0.30;0.30;;;28.40;63.80;;;;;;5026964;28;20021;-75
2023/09/27 11:59:05;;;;;;;0.10;0.10;;;28.40;63.80;;;;;;5044227;28;20174;-91
2023/09/27 12:01:32;;;;;;;0.00;0.00;;;28.40;64.50;;;;;;5077357;28;20245;-74
2023/09/27 12:03:58;;;;;;;0.28;0.20;;;28.40;63.30;;;;;;5061764;28;20091;-84
2023/09/27 12:06:25;;;;;;;0.03;0.03;;;28.30;63.30;;;;;;5061433;28;20621;-81
2023/09/27 12:08:51;;;;;;;5.78;0.60;;;28.20;63.30;;;;;;5062045;28;20055;-77
2023/09/27 12:11:17;;;;;;;0.00;0.00;;;27.90;63.00;;;;;;5061950;28;20299;-76
2023/09/27 12:13:43;;;;;;;0.20;0.20;;;27.70;63.20;;;;;;5044002;28;20040;-76
2023/09/27 12:16:09;;;;;;;0.00;0.00;;;28.60;63.10;;;;;;5061117;28;20336;-75
2023/09/27 12:18:35;;;;;;;0.52;0.20;;;28.00;62.60;;;;;;5062311;28;20599;-76
2023/09/27 12:21:00;;;;;;;1.10;0.77;;;28.00;62.70;;;;;;5061275;28;20516;-78
2023/09/27 12:23:27;;;;;;;1.27;0.52;;;28.30;62.30;;;;;;5060645;28;20021;-75
2023/09/27 12:25:52;;;;;;;0.70;0.35;;;28.30;61.40;;;;;;5060796;28;20453;-79
2023/09/27 12:28:19;;;;;;;0.00;0.00;;;28.20;61.10;;;;;;5060603;28;20051;-75
2023/09/27 12:30:45;;;;;;;5.07;4.75;;;28.30;61.20;;;;;;5076827;28;20445;-76
2023/09/27 12:33:15;;;;;;;0.00;0.00;;;28.00;60.40;;;;;;5044039;28;20017;-80
2023/09/27 12:35:42;;;;;;;0.00;0.00;;;28.20;60.30;;;;;;5044485;28;20107;-75
2023/09/27 12:38:10;;;;;;;0.00;0.00;;;28.40;61.40;;;;;;5062584;28;20646;-75
2023/09/27 12:40:36;;;;;;;0.00;0.00;;;28.40;61.10;;;;;;5061458;28;20046;-78
2023/09/27 12:43:04;;;;;;;0.50;0.22;;;28.50;61.90;;;;;;5061694;28;20029;-76
2023/09/27 12:45:31;;;;;;;0.15;0.15;;;28.60;62.60;;;;;;5061742;28;20079;-77
2023/09/27 12:47:57;;;;;;;8.40;0.70;;;29.10;62.10;;;;;;5060461;28;20273;-76
2023/09/27 12:50:30;;;;;;;0.00;0.00;;;29.00;60.60;;;;;;5045710;28;20020;-76
2023/09/27 12:53:02;;;;;;;0.03;0.03;;;28.80;61.40;;;;;;5062032;28;20028;-75